Arnold, Michigan
Current Conditions -  °F | °C
As of 1:57 AM on Saturday 01 Nov 2014 (Local Time) from KSAW Reporting Station
Overcast Overcast  
Wind Chill: 25°   Ceiling: 3000
Heat Index: 30°   Visibility: 10mi
Dew Point: 24°   Wind: 5mph
Humidity: 77%   Direction: 320°NW
Pressure: 30.4"   Gusts: NA
Location:  46.05°N, 87.49°W
Report Text: KSAW 010557Z AUTO 32004KT 10SM OVC030 M01/M05 A3040 RMK AO2 T10101046
Loading
Personal Weather Stations






























Interactive Weather Map
Tropical Storm Tracking
New forecast layout! Learn more

10-Day Weather Forecast

Advertisements
Track Severe Weather on mobile